createdAt,value
2023-04-11T00:00:15.709Z,10.20
2023-04-11T00:02:42.317Z,10.10
2023-04-11T00:05:09.707Z,10.10
2023-04-11T00:07:36.308Z,10.10
2023-04-11T00:10:03.187Z,10.00
2023-04-11T00:12:29.824Z,10.00
2023-04-11T00:14:56.339Z,10.00
2023-04-11T00:17:23.560Z,10.10
2023-04-11T00:19:53.128Z,10.10
2023-04-11T00:22:19.685Z,10.10
2023-04-11T00:24:46.272Z,10.00
2023-04-11T00:27:12.767Z,10.00
2023-04-11T00:29:39.358Z,10.00
2023-04-11T00:32:06.166Z,9.90
2023-04-11T00:34:34.009Z,9.90
2023-04-11T00:37:01.396Z,10.00
2023-04-11T00:39:30.301Z,9.90
2023-04-11T00:42:07.624Z,9.80
2023-04-11T00:44:37.517Z,9.90
2023-04-11T00:47:06.822Z,9.90
2023-04-11T00:49:34.212Z,10.00
2023-04-11T00:52:01.651Z,9.90
2023-04-11T00:54:30.049Z,9.90
2023-04-11T00:57:04.355Z,10.00
2023-04-11T00:59:32.110Z,9.90
2023-04-11T01:01:59.709Z,9.90
2023-04-11T01:04:26.502Z,9.90
2023-04-11T01:06:58.934Z,9.90
2023-04-11T01:09:27.366Z,9.90
2023-04-11T01:11:54.457Z,9.80
2023-04-11T01:14:22.262Z,9.80
2023-04-11T01:16:50.472Z,9.70
2023-04-11T01:19:21.754Z,9.70
2023-04-11T01:21:50.733Z,9.70
2023-04-11T01:24:17.690Z,9.60
2023-04-11T01:26:44.478Z,9.60
2023-04-11T01:29:11.316Z,9.50
2023-04-11T01:31:38.253Z,9.50
2023-04-11T01:34:05.478Z,9.40
2023-04-11T01:36:32.595Z,9.30
2023-04-11T01:38:59.324Z,9.20
2023-04-11T01:41:26.845Z,9.10
2023-04-11T01:43:53.872Z,9.00
2023-04-11T01:46:22.471Z,9.00
2023-04-11T01:48:54.904Z,8.80
2023-04-11T01:51:21.660Z,8.80
2023-04-11T01:53:48.212Z,8.80
2023-04-11T01:56:15.558Z,8.80
2023-04-11T01:58:42.208Z,8.80
2023-04-11T02:01:08.747Z,8.70
2023-04-11T02:03:36.764Z,8.80
2023-04-11T02:06:04.066Z,8.80
2023-04-11T02:08:30.858Z,8.90
2023-04-11T02:10:57.365Z,8.90
2023-04-11T02:13:23.874Z,8.90
2023-04-11T02:15:50.462Z,9.00
2023-04-11T02:18:16.993Z,9.00
2023-04-11T02:20:43.539Z,8.90
2023-04-11T02:23:10.915Z,8.90
2023-04-11T02:25:38.825Z,8.80
2023-04-11T02:28:08.026Z,8.80
2023-04-11T02:30:34.760Z,8.80
2023-04-11T02:33:01.546Z,8.80
2023-04-11T02:35:28.272Z,8.80
2023-04-11T02:37:54.835Z,8.90
2023-04-11T02:40:21.365Z,8.90
2023-04-11T02:42:47.878Z,8.90
2023-04-11T02:45:14.405Z,8.90
2023-04-11T02:47:41.133Z,8.90
2023-04-11T02:50:08.512Z,8.90
2023-04-11T02:52:35.248Z,8.90
2023-04-11T02:55:01.799Z,8.80
2023-04-11T02:57:28.309Z,8.90
2023-04-11T02:59:54.853Z,8.90
2023-04-11T03:02:23.483Z,8.90
2023-04-11T03:04:50.453Z,8.90
2023-04-11T03:07:17.043Z,8.90
2023-04-11T03:09:43.627Z,8.90
2023-04-11T03:12:10.258Z,9.00
2023-04-11T03:14:36.746Z,9.00
2023-04-11T03:17:03.261Z,8.90
2023-04-11T03:19:29.790Z,8.90
2023-04-11T03:21:56.574Z,8.90
2023-04-11T03:24:23.150Z,8.90
2023-04-11T03:26:49.775Z,8.90
2023-04-11T03:29:16.463Z,8.90
2023-04-11T03:31:43.095Z,8.80
2023-04-11T03:34:09.749Z,8.80
2023-04-11T03:36:36.285Z,8.80
2023-04-11T03:39:03.641Z,8.70
2023-04-11T03:41:30.214Z,8.90
2023-04-11T03:43:56.898Z,8.80
2023-04-11T03:46:23.503Z,8.80
2023-04-11T03:48:50.075Z,8.80
2023-04-11T03:51:16.727Z,8.70
2023-04-11T03:53:43.236Z,8.70
2023-04-11T03:56:10.190Z,8.70
2023-04-11T03:58:36.975Z,8.70
2023-04-11T04:01:03.597Z,8.70
2023-04-11T04:03:30.619Z,8.70
2023-04-11T04:05:57.368Z,8.60
2023-04-11T04:08:23.911Z,8.60
2023-04-11T04:10:50.511Z,8.60
2023-04-11T04:13:17.021Z,8.60
2023-04-11T04:15:43.576Z,8.60
2023-04-11T04:18:10.235Z,8.60
2023-04-11T04:20:36.783Z,8.60
2023-04-11T04:23:05.906Z,8.50
2023-04-11T04:25:32.445Z,8.50
2023-04-11T04:28:00.828Z,8.50
2023-04-11T04:30:28.765Z,8.50
2023-04-11T04:32:58.625Z,8.50
2023-04-11T04:35:26.253Z,8.50
2023-04-11T04:37:53.888Z,8.50
2023-04-11T04:40:20.499Z,8.50
2023-04-11T04:42:49.805Z,8.40
2023-04-11T04:45:16.448Z,8.40
2023-04-11T04:47:43.008Z,8.30
2023-04-11T04:50:09.997Z,8.30
2023-04-11T04:52:36.587Z,8.40
2023-04-11T04:55:03.695Z,8.40
2023-04-11T04:57:33.260Z,8.30
2023-04-11T04:59:59.977Z,8.40
2023-04-11T05:02:26.812Z,8.40
2023-04-11T05:04:56.536Z,8.40
2023-04-11T05:07:23.441Z,8.50
2023-04-11T05:09:50.160Z,8.50
2023-04-11T05:12:17.047Z,8.50
2023-04-11T05:14:43.688Z,8.60
2023-04-11T05:17:10.499Z,8.60
2023-04-11T05:19:37.006Z,8.60
2023-04-11T05:22:03.539Z,8.70
2023-04-11T05:24:30.126Z,8.60
2023-04-11T05:26:56.621Z,8.60
2023-04-11T05:29:23.153Z,8.70
2023-04-11T05:31:49.651Z,8.70
2023-04-11T05:34:16.199Z,8.70
2023-04-11T05:36:42.808Z,8.70
2023-04-11T05:39:09.321Z,8.70
2023-04-11T05:41:35.823Z,8.70
2023-04-11T05:44:02.334Z,8.70
2023-04-11T05:46:29.403Z,8.70
2023-04-11T05:48:59.004Z,8.60
2023-04-11T05:51:26.267Z,8.60
2023-04-11T05:53:52.759Z,8.60
2023-04-11T05:56:19.620Z,8.50
2023-04-11T05:58:46.159Z,8.50
2023-04-11T06:01:18.674Z,8.50
2023-04-11T06:03:45.991Z,8.60
2023-04-11T06:06:12.878Z,8.50
2023-04-11T06:08:39.794Z,8.60
2023-04-11T06:11:06.351Z,8.60
2023-04-11T06:13:32.859Z,8.60
2023-04-11T06:15:59.394Z,8.60
2023-04-11T06:18:26.152Z,8.60
2023-04-11T06:20:52.687Z,8.60
2023-04-11T06:23:19.284Z,8.60
2023-04-11T06:25:46.085Z,8.70
2023-04-11T06:28:12.599Z,8.70
2023-04-11T06:30:39.102Z,8.70
2023-04-11T06:33:05.985Z,8.60
2023-04-11T06:35:32.645Z,8.70
2023-04-11T06:37:59.223Z,8.80
2023-04-11T06:40:25.763Z,8.90
2023-04-11T06:42:52.563Z,8.90
2023-04-11T06:45:19.093Z,9.00
2023-04-11T06:47:45.729Z,9.00
2023-04-11T06:50:12.359Z,9.00
2023-04-11T06:52:38.861Z,9.10
2023-04-11T06:55:07.062Z,9.10
2023-04-11T06:57:33.990Z,9.20
2023-04-11T07:00:00.645Z,9.40
2023-04-11T07:02:27.355Z,9.40
2023-04-11T07:04:54.165Z,9.50
2023-04-11T07:07:21.442Z,9.40
2023-04-11T07:09:48.286Z,9.60
2023-04-11T07:12:14.780Z,9.70
2023-04-11T07:14:41.291Z,10.00
2023-04-11T07:17:07.852Z,9.70
2023-04-11T07:19:34.387Z,10.00
2023-04-11T07:22:01.973Z,10.30
2023-04-11T07:24:30.311Z,10.30
2023-04-11T07:26:58.706Z,10.00
2023-04-11T07:29:25.281Z,10.20
2023-04-11T07:31:52.882Z,10.80
2023-04-11T07:34:19.427Z,11.50
2023-04-11T07:36:45.977Z,11.90
2023-04-11T07:39:14.746Z,11.60
2023-04-11T07:41:41.277Z,11.70
2023-04-11T07:44:09.594Z,12.10
2023-04-11T07:46:36.189Z,12.60
2023-04-11T07:49:02.972Z,12.40
2023-04-11T07:51:29.581Z,12.20
2023-04-11T07:53:56.231Z,12.00
2023-04-11T07:56:22.914Z,11.60
2023-04-11T07:58:49.960Z,11.30
2023-04-11T08:01:23.995Z,11.80
2023-04-11T08:03:52.911Z,11.80
2023-04-11T08:06:19.679Z,11.20
2023-04-11T08:08:47.410Z,10.80
2023-04-11T08:11:14.433Z,11.00
2023-04-11T08:13:41.548Z,10.80
2023-04-11T08:16:10.322Z,10.60
2023-04-11T08:18:37.330Z,10.30
2023-04-11T08:21:03.963Z,10.30
2023-04-11T08:23:30.661Z,10.10
2023-04-11T08:25:57.240Z,10.90
2023-04-11T08:28:24.424Z,11.90
2023-04-11T08:30:58.177Z,12.60
2023-04-11T08:33:27.886Z,12.00
2023-04-11T08:35:54.435Z,11.20
2023-04-11T08:38:20.992Z,11.30
2023-04-11T08:40:47.570Z,12.50
2023-04-11T08:43:14.169Z,12.90
2023-04-11T08:45:41.700Z,13.10
2023-04-11T08:48:08.919Z,11.80
2023-04-11T08:50:35.681Z,11.80
2023-04-11T08:53:03.174Z,11.70
2023-04-11T08:55:30.505Z,11.90
2023-04-11T08:57:59.437Z,12.40
2023-04-11T09:00:28.915Z,11.70
2023-04-11T09:03:00.737Z,11.40
2023-04-11T09:05:33.293Z,11.30
2023-04-11T09:08:18.974Z,11.30
2023-04-11T09:10:46.336Z,11.30
2023-04-11T09:13:28.021Z,11.20
2023-04-11T09:16:03.587Z,11.60
2023-04-11T09:18:37.971Z,11.80
2023-04-11T09:21:09.655Z,11.60
2023-04-11T09:23:37.203Z,12.00
2023-04-11T09:26:11.533Z,12.60
2023-04-11T09:28:50.491Z,13.50
2023-04-11T09:31:17.055Z,14.30
2023-04-11T09:33:54.563Z,13.40
2023-04-11T09:36:23.435Z,12.90
2023-04-11T09:38:51.215Z,12.60
2023-04-11T09:41:33.489Z,12.70
2023-04-11T09:44:01.094Z,13.20
2023-04-11T09:46:27.984Z,13.00
2023-04-11T09:48:56.377Z,13.90
2023-04-11T09:51:35.719Z,13.70
2023-04-11T09:54:04.882Z,13.40
2023-04-11T09:56:33.926Z,13.20
2023-04-11T09:59:02.339Z,13.20
2023-04-11T10:01:28.899Z,13.90
2023-04-11T10:03:56.748Z,14.40
2023-04-11T10:06:49.954Z,14.90
2023-04-11T10:09:16.720Z,14.90
2023-04-11T10:11:44.395Z,15.10
2023-04-11T10:14:39.158Z,13.70
2023-04-11T10:17:21.866Z,14.40
2023-04-11T10:19:51.340Z,14.90
2023-04-11T10:22:43.251Z,13.60
2023-04-11T10:25:24.630Z,14.60
2023-04-11T10:28:01.866Z,15.10
2023-04-11T10:30:40.727Z,15.70
2023-04-11T10:33:16.144Z,15.10
2023-04-11T10:36:05.051Z,14.60
2023-04-11T10:38:40.883Z,15.00
2023-04-11T10:41:22.498Z,15.00
2023-04-11T10:43:49.629Z,14.80
2023-04-11T10:46:23.927Z,14.80
2023-04-11T10:49:05.001Z,14.20
2023-04-11T10:51:33.069Z,15.30
2023-04-11T10:54:00.699Z,15.40
2023-04-11T10:56:43.004Z,14.80
2023-04-11T10:59:31.497Z,15.60
2023-04-11T11:02:01.154Z,16.10
2023-04-11T11:04:35.273Z,16.60
2023-04-11T11:07:04.204Z,15.30
2023-04-11T11:09:31.403Z,14.80
2023-04-11T11:12:11.866Z,14.70
2023-04-11T11:14:44.225Z,15.20
2023-04-11T11:17:15.575Z,15.20
2023-04-11T11:19:46.323Z,15.70
2023-04-11T11:22:16.791Z,16.50
2023-04-11T11:24:43.356Z,16.10
2023-04-11T11:27:24.546Z,16.20
2023-04-11T11:29:51.721Z,16.20
2023-04-11T11:32:28.263Z,16.60
2023-04-11T11:34:55.357Z,16.30
2023-04-11T11:37:23.014Z,16.40
2023-04-11T11:39:50.622Z,16.10
2023-04-11T11:42:17.938Z,15.20
2023-04-11T11:44:44.526Z,14.90
2023-04-11T11:47:14.825Z,15.00
2023-04-11T11:49:54.812Z,15.50
2023-04-11T11:52:35.985Z,16.00
2023-04-11T11:55:06.136Z,16.30
2023-04-11T11:57:34.284Z,17.10
2023-04-11T12:00:01.875Z,17.20
2023-04-11T12:02:28.576Z,17.10
2023-04-11T12:05:04.906Z,16.40
2023-04-11T12:07:33.180Z,16.70
2023-04-11T12:10:11.522Z,16.80
2023-04-11T12:12:40.755Z,16.70
2023-04-11T12:15:15.817Z,16.90
2023-04-11T12:17:42.962Z,17.20
2023-04-11T12:20:11.116Z,17.60
2023-04-11T12:22:38.349Z,17.20
2023-04-11T12:25:09.586Z,17.30
2023-04-11T12:27:41.978Z,15.70
2023-04-11T12:30:14.905Z,15.00
2023-04-11T12:32:41.806Z,14.30
2023-04-11T12:35:09.198Z,14.20
2023-04-11T12:37:35.816Z,15.00
2023-04-11T12:40:06.970Z,15.60
2023-04-11T12:42:36.865Z,15.00
2023-04-11T12:45:10.292Z,14.50
2023-04-11T12:47:37.381Z,14.20
2023-04-11T12:50:04.836Z,13.90
2023-04-11T12:52:31.325Z,13.80
2023-04-11T12:54:57.861Z,13.70
2023-04-11T12:57:24.425Z,13.40
2023-04-11T12:59:52.380Z,14.10
2023-04-11T13:02:20.670Z,15.10
2023-04-11T13:04:53.843Z,15.50
2023-04-11T13:07:21.303Z,15.70
2023-04-11T13:09:51.282Z,15.70
2023-04-11T13:12:17.804Z,16.20
2023-04-11T13:14:44.392Z,16.10
2023-04-11T13:17:11.565Z,16.50
2023-04-11T13:19:38.171Z,15.80
2023-04-11T13:22:04.828Z,15.00
2023-04-11T13:24:32.087Z,14.40
2023-04-11T13:26:59.047Z,14.00
2023-04-11T13:29:25.822Z,13.60
2023-04-11T13:31:52.467Z,13.60
2023-04-11T13:34:19.086Z,13.60
2023-04-11T13:36:46.120Z,14.20
2023-04-11T13:39:13.416Z,13.50
2023-04-11T13:41:39.926Z,13.30
2023-04-11T13:44:06.641Z,13.10
2023-04-11T13:46:33.259Z,13.00
2023-04-11T13:49:00.380Z,13.00
2023-04-11T13:51:27.387Z,13.10
2023-04-11T13:53:53.925Z,13.30
2023-04-11T13:56:20.526Z,13.20
2023-04-11T13:58:47.038Z,13.10
2023-04-11T14:01:13.730Z,12.90
2023-04-11T14:03:42.624Z,12.50
2023-04-11T14:06:09.635Z,12.20
2023-04-11T14:08:36.818Z,11.70
2023-04-11T14:11:03.542Z,11.30
2023-04-11T14:13:30.130Z,11.20
2023-04-11T14:16:07.925Z,11.20
2023-04-11T14:18:35.404Z,11.30
2023-04-11T14:21:02.217Z,11.40
2023-04-11T14:23:29.293Z,11.60
2023-04-11T14:25:55.930Z,11.80
2023-04-11T14:28:26.105Z,11.90
2023-04-11T14:30:53.219Z,12.20
2023-04-11T14:33:19.874Z,12.40
2023-04-11T14:35:47.157Z,12.60
2023-04-11T14:38:15.585Z,13.50
2023-04-11T14:40:42.386Z,15.00
2023-04-11T14:43:09.031Z,16.30
2023-04-11T14:45:35.711Z,17.20
2023-04-11T14:48:02.341Z,18.00
2023-04-11T14:50:29.100Z,18.60
2023-04-11T14:52:55.681Z,19.30
2023-04-11T14:55:22.664Z,19.20
2023-04-11T14:57:53.040Z,19.70
2023-04-11T15:00:20.824Z,19.90
2023-04-11T15:02:49.362Z,20.50
2023-04-11T15:05:17.355Z,20.30
2023-04-11T15:07:46.161Z,20.70
2023-04-11T15:10:13.785Z,20.80
2023-04-11T15:12:40.735Z,21.30
2023-04-11T15:15:11.270Z,20.50
2023-04-11T15:17:43.186Z,18.80
2023-04-11T15:20:12.080Z,17.20
2023-04-11T15:22:41.511Z,16.40
2023-04-11T15:25:14.376Z,16.10
2023-04-11T15:27:41.913Z,15.40
2023-04-11T15:30:10.058Z,15.10
2023-04-11T15:32:42.603Z,14.60
2023-04-11T15:35:09.798Z,14.10
2023-04-11T15:37:36.321Z,13.60
2023-04-11T15:40:06.336Z,13.40
2023-04-11T15:42:35.068Z,13.20
2023-04-11T15:45:01.673Z,13.40
2023-04-11T15:47:28.330Z,13.50
2023-04-11T15:49:54.930Z,13.30
2023-04-11T15:52:21.484Z,13.20
2023-04-11T15:54:48.248Z,12.80
2023-04-11T15:57:14.740Z,12.80
2023-04-11T15:59:41.367Z,12.70
2023-04-11T16:02:08.488Z,12.70
2023-04-11T16:04:38.820Z,12.60
2023-04-11T16:07:06.509Z,12.40
2023-04-11T16:09:33.892Z,12.20
2023-04-11T16:12:01.240Z,11.90
2023-04-11T16:14:29.085Z,11.80
2023-04-11T16:16:56.365Z,11.70
2023-04-11T16:19:22.884Z,11.60
2023-04-11T16:21:49.435Z,11.50
2023-04-11T16:24:15.997Z,11.50
2023-04-11T16:26:43.166Z,11.50
2023-04-11T16:29:09.710Z,11.50
2023-04-11T16:31:36.344Z,11.50
2023-04-11T16:34:02.963Z,11.50
2023-04-11T16:36:29.589Z,11.60
2023-04-11T16:38:56.174Z,11.60
2023-04-11T16:41:22.811Z,11.80
2023-04-11T16:43:49.428Z,11.90
2023-04-11T16:46:16.045Z,12.00
2023-04-11T16:48:43.586Z,12.20
2023-04-11T16:51:11.578Z,12.40
2023-04-11T16:53:39.036Z,12.60
2023-04-11T16:56:06.214Z,12.40
2023-04-11T16:58:33.552Z,12.30
2023-04-11T17:01:01.082Z,12.40
2023-04-11T17:03:28.014Z,12.20
2023-04-11T17:05:54.828Z,12.20
2023-04-11T17:08:21.460Z,12.10
2023-04-11T17:10:48.077Z,12.10
2023-04-11T17:13:15.808Z,12.10
2023-04-11T17:15:42.338Z,12.10
2023-04-11T17:18:08.927Z,12.10
2023-04-11T17:20:35.904Z,11.90
2023-04-11T17:23:02.457Z,12.00
2023-04-11T17:25:29.937Z,12.00
2023-04-11T17:27:57.183Z,12.00
2023-04-11T17:30:23.769Z,11.80
2023-04-11T17:32:50.623Z,11.70
2023-04-11T17:35:17.166Z,11.60
2023-04-11T17:37:43.666Z,11.60
2023-04-11T17:40:14.182Z,11.50
2023-04-11T17:42:41.390Z,11.50
2023-04-11T17:45:17.161Z,11.50
2023-04-11T17:47:45.922Z,11.40
2023-04-11T17:50:13.662Z,11.40
2023-04-11T17:52:41.603Z,11.40
2023-04-11T17:55:10.273Z,11.30
2023-04-11T17:57:37.688Z,11.20
2023-04-11T18:00:38.973Z,11.20
2023-04-11T18:03:12.137Z,11.20
2023-04-11T18:05:38.768Z,11.10
2023-04-11T18:08:05.344Z,11.00
2023-04-11T18:10:32.043Z,11.00
2023-04-11T18:12:58.770Z,11.10
2023-04-11T18:15:26.303Z,11.10
2023-04-11T18:17:52.988Z,11.00
2023-04-11T18:20:19.867Z,10.80
2023-04-11T18:22:48.908Z,10.80
2023-04-11T18:25:15.498Z,10.70
2023-04-11T18:27:42.237Z,10.80
2023-04-11T18:30:14.087Z,10.80
2023-04-11T18:32:46.750Z,10.70
2023-04-11T18:35:16.263Z,10.70
2023-04-11T18:37:43.331Z,10.80
2023-04-11T18:40:12.122Z,10.80
2023-04-11T18:42:50.532Z,10.80
2023-04-11T18:45:20.764Z,10.80
2023-04-11T18:47:47.767Z,10.80
2023-04-11T18:50:15.303Z,10.70
2023-04-11T18:52:42.957Z,10.80
2023-04-11T18:55:10.997Z,10.70
2023-04-11T18:57:38.765Z,10.70
2023-04-11T19:00:14.835Z,10.70
2023-04-11T19:02:43.165Z,10.80
2023-04-11T19:05:13.288Z,10.70
2023-04-11T19:07:41.790Z,10.80
2023-04-11T19:10:09.825Z,10.70
2023-04-11T19:12:37.049Z,10.60
2023-04-11T19:15:07.436Z,10.60
2023-04-11T19:17:35.502Z,10.70
2023-04-11T19:20:06.493Z,10.70
2023-04-11T19:22:34.057Z,10.80
2023-04-11T19:25:01.665Z,10.80
2023-04-11T19:27:30.470Z,10.70
2023-04-11T19:29:59.480Z,10.70
2023-04-11T19:32:27.491Z,10.80
2023-04-11T19:34:59.154Z,10.90
2023-04-11T19:37:25.667Z,10.70
2023-04-11T19:39:52.172Z,10.40
2023-04-11T19:42:18.917Z,10.30
2023-04-11T19:44:45.444Z,10.30
2023-04-11T19:47:11.984Z,10.40
2023-04-11T19:49:38.594Z,10.40
2023-04-11T19:52:05.132Z,10.60
2023-04-11T19:54:33.371Z,10.50
2023-04-11T19:57:00.552Z,10.40
2023-04-11T19:59:27.119Z,10.60
2023-04-11T20:01:54.157Z,10.60
2023-04-11T20:04:21.052Z,10.70
2023-04-11T20:06:50.503Z,10.70
2023-04-11T20:09:18.344Z,10.70
2023-04-11T20:11:47.542Z,10.60
2023-04-11T20:14:14.391Z,10.50
2023-04-11T20:16:42.846Z,10.50
2023-04-11T20:19:09.627Z,10.60
2023-04-11T20:21:36.252Z,10.50
2023-04-11T20:24:03.544Z,10.40
2023-04-11T20:26:30.306Z,10.50
2023-04-11T20:28:59.915Z,10.30
2023-04-11T20:31:26.553Z,10.30
2023-04-11T20:33:53.144Z,10.30
2023-04-11T20:36:19.833Z,10.30
2023-04-11T20:38:46.604Z,10.30
2023-04-11T20:41:13.486Z,10.20
2023-04-11T20:43:42.011Z,10.10
2023-04-11T20:46:08.833Z,10.20
2023-04-11T20:48:35.755Z,10.10
2023-04-11T20:51:02.403Z,10.10
2023-04-11T20:53:29.145Z,10.00
2023-04-11T20:55:55.692Z,10.00
2023-04-11T20:58:22.367Z,10.00
2023-04-11T21:00:48.897Z,10.10
2023-04-11T21:03:15.672Z,10.10
2023-04-11T21:05:46.522Z,10.10
2023-04-11T21:08:13.292Z,10.20
2023-04-11T21:10:39.788Z,10.20
2023-04-11T21:13:06.289Z,10.20
2023-04-11T21:15:35.560Z,10.10
2023-04-11T21:18:02.364Z,10.10
2023-04-11T21:20:29.121Z,10.20
2023-04-11T21:22:55.775Z,10.10
2023-04-11T21:25:23.862Z,10.10
2023-04-11T21:27:50.537Z,10.10
2023-04-11T21:30:17.154Z,10.00
2023-04-11T21:32:43.979Z,10.00
2023-04-11T21:35:12.214Z,10.00
2023-04-11T21:37:38.909Z,10.00
2023-04-11T21:40:06.299Z,10.00
2023-04-11T21:42:32.857Z,9.90
2023-04-11T21:44:59.481Z,9.90
2023-04-11T21:47:26.311Z,9.90
2023-04-11T21:49:52.847Z,10.00
2023-04-11T21:52:19.389Z,10.10
2023-04-11T21:54:46.831Z,10.20
2023-04-11T21:57:13.465Z,10.30
2023-04-11T21:59:40.231Z,10.20
2023-04-11T22:02:06.976Z,10.20
2023-04-11T22:04:47.541Z,10.20
2023-04-11T22:07:26.346Z,10.20
2023-04-11T22:09:59.631Z,10.20
2023-04-11T22:12:26.982Z,10.10
2023-04-11T22:14:56.928Z,10.00
2023-04-11T22:17:23.647Z,9.90
2023-04-11T22:19:50.228Z,9.90
2023-04-11T22:22:17.577Z,9.80
2023-04-11T22:24:46.264Z,9.70
2023-04-11T22:27:13.593Z,9.60
2023-04-11T22:29:41.185Z,9.70
2023-04-11T22:32:08.244Z,9.60
2023-04-11T22:34:34.966Z,9.60
2023-04-11T22:37:01.462Z,9.50
2023-04-11T22:39:28.127Z,9.50
2023-04-11T22:41:55.485Z,9.50
2023-04-11T22:44:21.988Z,9.60
2023-04-11T22:47:06.295Z,9.80
2023-04-11T22:49:40.144Z,10.00
2023-04-11T22:52:07.954Z,10.00
2023-04-11T22:54:38.380Z,10.10
2023-04-11T22:57:04.925Z,10.10
2023-04-11T22:59:31.615Z,10.00
2023-04-11T23:01:58.388Z,10.00
2023-04-11T23:04:25.262Z,9.90
2023-04-11T23:06:51.931Z,10.00
2023-04-11T23:09:18.958Z,9.90
2023-04-11T23:11:46.886Z,9.90
2023-04-11T23:14:15.141Z,9.90
2023-04-11T23:16:43.025Z,9.90
2023-04-11T23:19:09.954Z,9.80
2023-04-11T23:21:37.604Z,9.90
2023-04-11T23:24:05.393Z,9.80
2023-04-11T23:26:32.024Z,9.80
2023-04-11T23:29:00.738Z,9.70
2023-04-11T23:31:27.397Z,9.70
2023-04-11T23:33:54.011Z,9.60
2023-04-11T23:36:20.723Z,9.60
2023-04-11T23:38:47.419Z,9.60
2023-04-11T23:41:14.614Z,9.60
2023-04-11T23:43:41.179Z,9.40
2023-04-11T23:46:08.058Z,9.30
2023-04-11T23:48:34.674Z,9.40
2023-04-11T23:51:01.238Z,9.40
2023-04-11T23:53:27.727Z,9.50
2023-04-11T23:55:54.254Z,9.40
2023-04-11T23:58:20.798Z,9.20
